createdAt,value
2024-04-14T08:02:40.814Z,3244.17
2024-04-14T08:12:48.084Z,2986.67
2024-04-14T08:22:55.359Z,4115
2024-04-14T08:33:02.937Z,3215.83
2024-04-14T08:43:11.001Z,4548.33
2024-04-14T08:53:18.137Z,5390.83
2024-04-14T09:03:25.743Z,6571.67
2024-04-14T09:13:33.397Z,6138.33
2024-04-14T09:23:42.143Z,6889.17
2024-04-14T09:33:49.722Z,8675
2024-04-14T09:43:57.028Z,9265
2024-04-14T09:54:04.966Z,7772.5
2024-04-14T10:04:13.492Z,9632.5
2024-04-14T10:14:21.741Z,8748.33
2024-04-14T10:24:29.489Z,8430.83
2024-04-14T10:34:37.333Z,10973.33
2024-04-14T10:44:49.162Z,12755
2024-04-14T10:54:57.425Z,13455
2024-04-14T11:05:05.575Z,14580.83
2024-04-14T11:15:13.485Z,17107.5
2024-04-14T11:25:21.185Z,18860
2024-04-14T11:35:29.500Z,40499.16
2024-04-14T11:45:38.257Z,38195
2024-04-14T11:55:46.025Z,30677.5
2024-04-14T12:05:53.964Z,15928.33
2024-04-14T12:16:01.640Z,34520
2024-04-14T12:26:09.889Z,24544.17
2024-04-14T12:36:16.998Z,52478.33
2024-04-14T12:46:26.100Z,46014.16
2024-04-14T12:56:34.867Z,46471.66
2024-04-14T13:06:41.686Z,44375
2024-04-14T13:16:51.461Z,41402.5
2024-04-14T13:26:59.978Z,43832.5
2024-04-14T13:37:07.832Z,32380.83
2024-04-14T13:47:15.848Z,40534.16
2024-04-14T13:57:23.704Z,43619.16
2024-04-14T14:07:31.705Z,43640
2024-04-14T14:17:40.433Z,41545.83
2024-04-14T14:27:48.794Z,37012.5
2024-04-14T14:37:58.731Z,37335
2024-04-14T14:48:11.348Z,35135.83
2024-04-14T14:58:19.083Z,36274.16
2024-04-14T15:08:26.983Z,32670
2024-04-14T15:18:34.901Z,26145
2024-04-14T15:28:42.579Z,27537.5
2024-04-14T15:38:50.753Z,21003.33
2024-04-14T15:48:58.411Z,21868.33
2024-04-14T15:59:06.396Z,18044.17
2024-04-14T16:09:14.291Z,15409.17
2024-04-14T16:19:21.637Z,8758.33
2024-04-14T16:29:27.746Z,3401.67
2024-04-14T16:39:33.071Z,3377.5
2024-04-14T16:49:39.677Z,3099.17
2024-04-14T16:59:45.721Z,2092.5
2024-04-14T17:09:52.817Z,1787.5
2024-04-14T17:19:59.717Z,1320.83
2024-04-14T17:30:06.642Z,876.67
2024-04-14T17:40:13.717Z,488.33
2024-04-14T17:50:21.025Z,267.5
2024-04-14T18:00:27.896Z,132.5
2024-04-14T18:10:34.965Z,55.83
2024-04-14T18:20:48.146Z,20.83
2024-04-14T18:30:55.662Z,5
2024-04-14T18:41:02.396Z,0.83
2024-04-14T18:51:09.148Z,0
2024-04-14T19:01:16.583Z,0
2024-04-14T19:11:24.071Z,0
2024-04-14T19:21:31.475Z,0
2024-04-14T19:31:39.246Z,0
2024-04-14T19:41:46.501Z,0
2024-04-14T19:51:53.783Z,0
2024-04-14T20:02:01.934Z,0
2024-04-14T20:12:09.423Z,0
2024-04-14T20:22:17.198Z,0
2024-04-14T20:32:25.004Z,0
2024-04-14T20:42:32.067Z,0
2024-04-14T20:52:39.135Z,0
2024-04-14T21:02:46.732Z,0
2024-04-14T21:12:54.085Z,0
2024-04-14T21:23:01.845Z,0
2024-04-14T21:33:09.439Z,0
2024-04-14T21:43:17.246Z,0
2024-04-14T21:53:24.318Z,0
